Time;durP1;ratioP1;P1;durP2;ratioP2;P2;SDS_P1;SDS_P2;PMS_P1;PMS_P2;Temp;Humidity;BMP_temperature;BMP_pressure;BME280_temperature;BME280_humidity;BME280_pressure;Samples;Min_cycle;Max_cycle;Signal;HPM_P1;HPM_P2
2023/10/13 00:01:06;;;;;;;64.68;16.40;;;13.70;99.90;;;;;;4214690;28;20046;-83
2023/10/13 00:03:18;;;;;;;69.80;16.98;;;13.70;99.90;;;;;;4232796;28;20099;-85
2023/10/13 00:05:19;;;;;;;72.43;18.27;;;13.80;99.90;;;;;;4214351;28;20123;-83
2023/10/13 00:07:20;;;;;;;72.57;19.55;;;13.80;99.90;;;;;;4232412;28;20048;-83
2023/10/13 00:09:25;;;;;;;73.07;18.48;;;13.80;99.90;;;;;;4232873;28;20459;-83
2023/10/13 00:11:26;;;;;;;58.97;18.40;;;14.50;99.90;;;;;;4232835;28;20051;-83
2023/10/13 00:13:31;;;;;;;71.95;19.33;;;13.90;99.90;;;;;;4231951;28;20050;-83
2023/10/13 00:15:40;;;;;;;63.30;18.90;;;14.00;99.90;;;;;;4232505;28;20036;-83
2023/10/13 00:17:41;;;;;;;67.95;17.95;;;13.90;99.90;;;;;;4214271;28;20565;-83
2023/10/13 00:19:46;;;;;;;75.82;19.23;;;14.00;99.90;;;;;;4232574;28;20044;-83
2023/10/13 00:21:47;;;;;;;75.38;20.55;;;14.00;99.90;;;;;;4213127;28;20124;-83
2023/10/13 00:23:55;;;;;;;70.68;20.05;;;14.10;99.90;;;;;;4214356;28;20036;-83
2023/10/13 00:25:59;;;;;;;72.85;21.15;;;14.10;99.90;;;;;;4232547;28;20077;-84
2023/10/13 00:28:01;;;;;;;76.90;20.88;;;14.20;99.90;;;;;;4213781;28;20542;-83
2023/10/13 00:30:20;;;;;;;76.95;20.33;;;14.20;99.90;;;;;;4214159;28;20060;-83
2023/10/13 00:32:26;;;;;;;72.07;20.70;;;14.30;99.90;;;;;;4214466;28;20048;-84
2023/10/13 00:34:27;;;;;;;78.13;21.27;;;14.30;99.90;;;;;;4232536;28;20047;-83
2023/10/13 00:36:28;;;;;;;69.82;19.33;;;14.40;99.90;;;;;;4232018;28;20044;-83
2023/10/13 00:38:29;;;;;;;67.03;20.35;;;14.40;99.90;;;;;;4232318;28;20047;-83
2023/10/13 00:42:50;;;;;;;65.50;21.27;;;14.50;99.90;;;;;;4214210;28;20558;-84
2023/10/13 00:44:54;;;;;;;66.78;20.02;;;14.60;99.90;;;;;;4232043;28;20082;-83
2023/10/13 00:46:56;;;;;;;72.75;20.38;;;14.60;99.90;;;;;;4232383;28;20044;-83
2023/10/13 00:48:57;;;;;;;66.00;19.17;;;14.60;99.90;;;;;;4215037;28;20042;-84
2023/10/13 00:51:03;;;;;;;65.28;18.95;;;14.60;99.90;;;;;;4197654;28;20049;-84
2023/10/13 00:53:04;;;;;;;65.65;20.02;;;14.70;99.90;;;;;;4196909;28;20132;-84
2023/10/13 00:55:08;;;;;;;74.10;20.35;;;14.70;99.90;;;;;;4232028;28;20137;-84
2023/10/13 00:57:26;;;;;;;63.28;19.85;;;14.80;99.90;;;;;;4214413;28;20149;-84
2023/10/13 00:59:26;;;;;;;64.32;20.05;;;14.80;99.90;;;;;;4214128;28;20047;-83
2023/10/13 01:01:32;;;;;;;60.63;19.38;;;14.90;99.90;;;;;;4213645;28;20047;-84
2023/10/13 01:03:35;;;;;;;59.72;19.80;;;14.90;99.90;;;;;;4213926;28;20052;-83
2023/10/13 01:05:37;;;;;;;64.95;19.30;;;15.00;99.90;;;;;;4213412;28;20044;-83
2023/10/13 01:07:39;;;;;;;59.95;19.75;;;15.00;99.90;;;;;;4232021;28;20036;-83
2023/10/13 01:09:43;;;;;;;63.53;18.73;;;15.10;99.90;;;;;;4213940;28;20083;-83
2023/10/13 01:11:47;;;;;;;56.33;19.25;;;15.10;99.90;;;;;;4231150;28;20499;-83
2023/10/13 01:13:51;;;;;;;57.97;18.13;;;15.10;99.90;;;;;;4213553;28;20040;-83
2023/10/13 01:15:51;;;;;;;66.13;18.63;;;15.10;99.90;;;;;;4231380;28;20126;-83
2023/10/13 01:17:56;;;;;;;60.33;18.45;;;15.10;99.90;;;;;;4231278;28;20500;-83
2023/10/13 01:19:58;;;;;;;56.13;17.02;;;15.20;99.90;;;;;;4212768;28;20051;-84
2023/10/13 01:22:03;;;;;;;60.03;18.23;;;15.20;99.90;;;;;;4213473;28;20044;-83
2023/10/13 01:24:07;;;;;;;58.10;18.20;;;15.20;99.90;;;;;;4213414;28;20118;-83
2023/10/13 01:26:09;;;;;;;63.30;19.70;;;15.30;99.90;;;;;;4231257;28;20526;-83
2023/10/13 01:28:10;;;;;;;60.88;18.00;;;15.30;99.90;;;;;;4231395;28;20484;-83
2023/10/13 01:30:22;;;;;;;57.17;18.38;;;15.30;99.90;;;;;;4212904;28;20055;-83
2023/10/13 01:32:24;;;;;;;62.60;18.35;;;15.30;99.90;;;;;;4230810;28;20048;-83
2023/10/13 01:34:25;;;;;;;59.70;18.80;;;15.40;99.90;;;;;;4213066;28;20055;-84
2023/10/13 01:36:35;;;;;;;61.83;18.08;;;15.40;99.90;;;;;;4213195;28;20614;-84
2023/10/13 01:38:37;;;;;;;56.63;17.73;;;15.40;99.90;;;;;;4231138;28;20488;-83
2023/10/13 01:40:38;;;;;;;52.92;18.17;;;15.40;99.90;;;;;;4212925;28;20496;-84
2023/10/13 01:42:39;;;;;;;50.65;16.27;;;15.40;99.90;;;;;;4213093;28;20032;-83
2023/10/13 01:44:40;;;;;;;50.25;17.25;;;15.40;99.90;;;;;;4212541;28;20408;-83
2023/10/13 01:46:42;;;;;;;55.95;17.48;;;15.50;99.90;;;;;;4231136;28;20042;-83
2023/10/13 01:48:44;;;;;;;57.58;17.13;;;15.50;99.90;;;;;;4213001;28;20491;-83
2023/10/13 01:50:55;;;;;;;44.75;16.02;;;15.50;99.90;;;;;;4230889;28;20056;-83
2023/10/13 01:53:11;;;;;;;49.03;16.90;;;15.50;99.90;;;;;;4230477;28;20048;-83
2023/10/13 01:55:14;;;;;;;45.35;15.45;;;15.50;99.90;;;;;;4229605;28;20051;-83
2023/10/13 01:57:17;;;;;;;43.92;15.63;;;15.50;99.90;;;;;;4229673;28;20056;-83
2023/10/13 01:59:18;;;;;;;57.40;16.65;;;15.60;99.90;;;;;;4196108;28;20044;-83
2023/10/13 02:01:27;;;;;;;42.25;14.77;;;15.60;99.90;;;;;;4196382;28;20436;-83
2023/10/13 02:03:29;;;;;;;44.65;15.32;;;15.60;99.90;;;;;;4212378;28;20039;-83
2023/10/13 02:05:36;;;;;;;38.40;14.50;;;15.60;99.90;;;;;;4213163;28;20123;-83
2023/10/13 02:07:38;;;;;;;35.33;13.82;;;15.60;99.90;;;;;;4213000;28;20042;-83
2023/10/13 02:09:39;;;;;;;39.63;14.05;;;15.70;99.90;;;;;;4213242;28;20510;-83
2023/10/13 02:11:41;;;;;;;33.70;13.52;;;15.60;99.90;;;;;;4212976;28;20044;-84
2023/10/13 02:13:48;;;;;;;38.03;13.45;;;15.70;99.90;;;;;;4231349;28;20047;-83
2023/10/13 02:15:53;;;;;;;40.03;13.93;;;15.70;99.90;;;;;;4227271;28;20032;-83
2023/10/13 02:17:54;;;;;;;30.65;12.40;;;15.70;99.90;;;;;;4250116;28;20040;-82
2023/10/13 02:19:55;;;;;;;37.95;12.32;;;15.70;99.90;;;;;;4196501;28;20052;-83
2023/10/13 02:21:58;;;;;;;31.48;12.13;;;15.70;99.90;;;;;;4212761;28;20558;-83
2023/10/13 02:24:05;;;;;;;32.28;11.60;;;15.70;99.90;;;;;;4213369;28;20055;-83
2023/10/13 02:28:28;;;;;;;36.33;11.02;;;15.80;99.90;;;;;;4213025;28;20055;-83
2023/10/13 02:30:30;;;;;;;31.42;10.85;;;15.80;99.90;;;;;;4212761;28;20087;-83
2023/10/13 02:32:33;;;;;;;37.00;11.18;;;15.80;99.90;;;;;;4212946;28;20048;-83
2023/10/13 02:34:33;;;;;;;34.25;10.85;;;15.90;99.90;;;;;;4196266;28;20120;-84
2023/10/13 02:36:46;;;;;;;21.60;9.25;;;15.80;99.90;;;;;;4212657;28;20043;-83
2023/10/13 02:38:47;;;;;;;20.73;9.40;;;15.80;99.90;;;;;;4230221;28;20096;-83
2023/10/13 02:40:48;;;;;;;25.27;9.57;;;15.90;99.90;;;;;;4230707;28;20442;-83
2023/10/13 02:42:49;;;;;;;21.63;9.65;;;15.90;99.90;;;;;;4212586;28;20047;-83
2023/10/13 02:44:50;;;;;;;23.85;10.60;;;15.80;99.90;;;;;;4232343;28;20035;-83
2023/10/13 02:46:51;;;;;;;22.65;10.23;;;15.90;99.90;;;;;;4233922;28;20043;-84
2023/10/13 02:48:58;;;;;;;20.50;9.15;;;15.90;99.90;;;;;;4215891;28;20528;-83
2023/10/13 02:51:05;;;;;;;18.15;8.63;;;15.90;99.90;;;;;;4215374;28;20088;-83
2023/10/13 02:53:12;;;;;;;20.27;8.60;;;15.90;99.90;;;;;;4234138;28;20381;-83
2023/10/13 02:55:16;;;;;;;18.35;8.07;;;15.90;99.90;;;;;;4215736;28;20051;-83
2023/10/13 02:57:17;;;;;;;19.00;8.23;;;15.90;99.90;;;;;;4216222;28;20119;-83
2023/10/13 02:59:33;;;;;;;21.42;8.38;;;15.90;99.90;;;;;;4215867;28;20415;-83
2023/10/13 03:01:35;;;;;;;16.30;6.65;;;15.90;99.90;;;;;;4215782;28;20055;-83
2023/10/13 03:03:37;;;;;;;17.33;6.78;;;15.90;99.90;;;;;;4216138;28;20549;-83
2023/10/13 03:05:39;;;;;;;14.30;7.18;;;16.00;99.90;;;;;;4215709;28;20040;-83
2023/10/13 03:07:43;;;;;;;16.45;6.88;;;16.00;99.90;;;;;;4234520;28;20123;-84
2023/10/13 03:09:50;;;;;;;15.63;7.68;;;15.70;99.90;;;;;;4235960;28;20043;-83
2023/10/13 03:11:51;;;;;;;19.48;7.90;;;16.00;99.90;;;;;;4217287;28;20109;-83
2023/10/13 03:13:52;;;;;;;14.00;7.50;;;16.00;99.90;;;;;;4198850;28;20493;-83
2023/10/13 03:15:55;;;;;;;17.92;8.23;;;16.00;99.90;;;;;;4216547;28;20044;-83
2023/10/13 03:17:58;;;;;;;29.23;9.82;;;16.00;99.90;;;;;;4234436;28;20050;-83
2023/10/13 03:19:59;;;;;;;20.27;9.02;;;16.00;99.90;;;;;;4233431;28;20043;-83
2023/10/13 03:22:16;;;;;;;24.13;9.85;;;16.00;99.90;;;;;;4234006;28;20078;-83
2023/10/13 03:24:22;;;;;;;35.15;11.43;;;16.10;99.90;;;;;;4233857;28;20047;-83
2023/10/13 03:26:24;;;;;;;22.15;10.30;;;16.10;99.90;;;;;;4235929;28;20080;-83
2023/10/13 03:28:33;;;;;;;29.23;10.63;;;16.10;99.90;;;;;;4215285;28;20536;-81
2023/10/13 03:30:38;;;;;;;31.00;11.48;;;16.10;99.90;;;;;;4235307;28;20504;-83
2023/10/13 03:32:43;;;;;;;30.75;12.07;;;16.10;99.90;;;;;;4215908;28;20482;-83
2023/10/13 03:37:10;;;;;;;35.00;13.32;;;16.10;99.90;;;;;;4233354;28;20050;-84
2023/10/13 03:39:11;;;;;;;29.55;11.88;;;16.10;99.90;;;;;;4215015;28;20055;-83
2023/10/13 03:41:19;;;;;;;33.35;12.80;;;16.10;99.90;;;;;;4232417;28;20130;-83
2023/10/13 03:43:23;;;;;;;27.48;11.73;;;16.10;99.90;;;;;;4215020;28;20055;-83
2023/10/13 03:45:25;;;;;;;30.85;12.82;;;16.10;99.90;;;;;;4215121;28;20051;-83
2023/10/13 03:47:32;;;;;;;31.75;12.73;;;16.20;99.90;;;;;;4232970;28;20051;-83
2023/10/13 03:49:37;;;;;;;39.58;12.63;;;16.10;99.90;;;;;;4232314;28;20159;-83
2023/10/13 03:51:38;;;;;;;28.52;11.63;;;16.10;99.90;;;;;;4232542;28;20130;-83
2023/10/13 03:53:52;;;;;;;33.42;12.25;;;16.10;99.90;;;;;;4231572;28;20073;-83
2023/10/13 03:56:07;;;;;;;30.42;12.00;;;16.10;99.90;;;;;;4214293;28;20118;-83
2023/10/13 03:58:10;;;;;;;29.17;11.18;;;16.20;99.90;;;;;;4214087;28;20051;-83
2023/10/13 04:00:21;;;;;;;24.73;9.75;;;16.10;99.90;;;;;;4214718;28;20057;-83
2023/10/13 04:02:22;;;;;;;23.25;10.45;;;16.20;99.90;;;;;;4214758;28;20075;-83
2023/10/13 04:08:49;;;;;;;15.00;8.43;;;16.10;99.90;;;;;;4232687;28;20136;-83
2023/10/13 04:15:22;;;;;;;;;;;16.10;99.90;;;;;;4232184;28;20047;-83
2023/10/13 04:17:25;;;;;;;15.82;7.60;;;16.10;99.90;;;;;;4214451;28;20375;-83
2023/10/13 04:19:29;;;;;;;12.82;7.28;;;16.10;99.90;;;;;;4214158;28;20412;-82
2023/10/13 04:24:09;;;;;;;15.23;7.53;;;16.10;99.90;;;;;;4232248;28;20043;-82
2023/10/13 04:26:08;;;;;;;13.43;7.15;;;16.10;99.90;;;;;;4214062;28;20059;-82
2023/10/13 04:30:24;;;;;;;15.90;7.57;;;16.10;99.90;;;;;;4231916;28;20035;-82
2023/10/13 04:32:28;;;;;;;15.65;7.00;;;16.10;99.90;;;;;;4197195;28;20483;-84
2023/10/13 04:34:38;;;;;;;15.82;7.35;;;16.20;99.90;;;;;;4213992;28;20544;-83
2023/10/13 04:36:45;;;;;;;21.02;8.07;;;16.10;99.90;;;;;;4232028;28;20148;-83
2023/10/13 04:39:35;;;;;;;15.32;7.13;;;16.20;99.90;;;;;;4197293;28;20123;-83
2023/10/13 04:41:22;;;;;;;19.95;7.93;;;16.20;99.90;;;;;;4205151;28;20063;-83
2023/10/13 04:46:25;;;;;;;18.55;8.02;;;16.20;99.90;;;;;;4191340;28;20441;-83
2023/10/13 04:50:27;;;;;;;16.63;7.07;;;16.20;99.90;;;;;;4231718;28;20074;-83
2023/10/13 04:53:01;;;;;;;16.45;7.60;;;16.20;99.90;;;;;;4213878;28;20047;-83
2023/10/13 05:00:42;;;;;;;16.55;7.10;;;16.20;99.90;;;;;;4231666;28;20058;-83
2023/10/13 05:04:57;;;;;;;14.73;7.03;;;16.20;99.90;;;;;;4213560;28;20086;-83
2023/10/13 05:49:09;;;;;;;7.60;4.38;;;16.10;99.90;;;;;;4231052;28;20450;-83
2023/10/13 06:30:36;;;;;;;5.85;3.00;;;15.90;99.90;;;;;;4233743;28;20051;-84
2023/10/13 06:32:39;;;;;;;10.05;3.13;;;15.90;99.90;;;;;;4234237;28;20047;-83
2023/10/13 06:34:46;;;;;;;6.90;3.20;;;15.90;99.90;;;;;;4233775;28;20076;-83
2023/10/13 06:36:47;;;;;;;4.88;3.00;;;15.90;99.90;;;;;;4215718;28;20427;-83
2023/10/13 06:39:34;;;;;;;4.30;3.03;;;15.90;99.90;;;;;;4216161;28;20044;-83
2023/10/13 06:41:30;;;;;;;5.25;2.58;;;15.90;99.90;;;;;;4215148;28;20223;-83
2023/10/13 06:43:42;;;;;;;5.93;3.10;;;15.90;99.90;;;;;;4234102;28;20388;-83
2023/10/13 06:45:50;;;;;;;7.22;3.13;;;15.90;99.90;;;;;;4215629;28;20416;-83
2023/10/13 06:47:53;;;;;;;6.10;3.30;;;15.90;99.90;;;;;;4234078;28;20052;-83
2023/10/13 06:49:54;;;;;;;5.78;3.25;;;15.90;99.90;;;;;;4215650;28;20485;-83
2023/10/13 06:52:00;;;;;;;6.18;3.10;;;15.90;99.90;;;;;;4215171;28;20044;-83
2023/10/13 06:54:02;;;;;;;4.03;2.55;;;16.00;99.90;;;;;;4215466;28;20052;-83
2023/10/13 06:56:07;;;;;;;3.75;2.97;;;16.00;99.90;;;;;;4215598;28;20048;-83
2023/10/13 06:58:13;;;;;;;6.38;2.85;;;16.00;99.90;;;;;;4233894;28;20055;-83
2023/10/13 07:00:27;;;;;;;5.53;2.38;;;16.00;99.90;;;;;;4233447;28;20487;-83
2023/10/13 07:02:33;;;;;;;5.00;2.55;;;16.00;99.90;;;;;;4215467;28;20428;-83
2023/10/13 07:04:34;;;;;;;3.28;2.08;;;16.10;99.90;;;;;;4215595;28;20047;-84
2023/10/13 07:06:35;;;;;;;3.67;2.20;;;16.10;99.90;;;;;;4214951;28;20404;-84
2023/10/13 07:08:37;;;;;;;5.95;2.22;;;16.20;99.90;;;;;;4198670;28;20044;-83
2023/10/13 07:11:17;;;;;;;3.50;2.20;;;16.20;99.90;;;;;;4233614;28;20119;-83
2023/10/13 07:13:07;;;;;;;4.60;2.58;;;16.20;99.90;;;;;;4230379;28;20175;-83
2023/10/13 07:15:19;;;;;;;4.70;2.38;;;16.30;99.90;;;;;;4214812;28;20495;-83
2023/10/13 07:17:26;;;;;;;3.50;1.65;;;16.30;99.90;;;;;;4233304;28;20497;-83
2023/10/13 07:19:30;;;;;;;7.32;2.63;;;16.30;99.90;;;;;;4198670;28;20866;-83
2023/10/13 07:21:32;;;;;;;5.57;2.08;;;16.30;99.90;;;;;;4215197;28;20048;-83
2023/10/13 07:23:35;;;;;;;5.70;2.22;;;16.30;99.90;;;;;;4233418;28;20039;-83
2023/10/13 07:25:40;;;;;;;5.90;2.30;;;16.40;99.90;;;;;;4233299;28;20100;-83
2023/10/13 07:27:40;;;;;;;9.13;2.75;;;16.40;99.90;;;;;;4232862;28;20032;-83
2023/10/13 07:29:42;;;;;;;7.78;2.38;;;16.40;99.90;;;;;;4214807;28;20222;-83
2023/10/13 07:31:49;;;;;;;9.13;2.63;;;16.40;99.90;;;;;;4232949;28;20043;-83
2023/10/13 07:33:50;;;;;;;6.78;2.55;;;16.40;99.90;;;;;;4215221;28;20044;-83
2023/10/13 07:36:09;;;;;;;7.60;2.65;;;16.40;99.90;;;;;;4233453;28;20119;-83
2023/10/13 07:38:10;;;;;;;11.30;3.17;;;16.40;99.90;;;;;;4233143;28;20117;-83
2023/10/13 07:42:31;;;;;;;9.07;2.67;;;16.40;99.90;;;;;;4233048;28;20059;-84
2023/10/13 07:44:33;;;;;;;4.80;2.53;;;16.40;99.90;;;;;;4233142;28;20088;-83
2023/10/13 07:46:35;;;;;;;9.05;3.17;;;16.40;99.90;;;;;;4215423;28;20036;-83
2023/10/13 07:48:37;;;;;;;6.65;2.60;;;16.40;99.90;;;;;;4233204;28;20044;-82
2023/10/13 07:50:39;;;;;;;9.73;2.53;;;16.40;99.90;;;;;;4232699;28;20060;-83
2023/10/13 07:52:58;;;;;;;13.18;3.03;;;16.40;99.90;;;;;;4233360;28;20047;-83
2023/10/13 07:55:11;;;;;;;11.52;2.47;;;16.30;99.90;;;;;;4215183;28;20058;-82
2023/10/13 07:57:14;;;;;;;9.73;3.10;;;16.40;99.90;;;;;;4214868;28;20075;-83
2023/10/13 07:59:15;;;;;;;10.43;3.45;;;16.40;99.90;;;;;;4215167;28;20052;-83
2023/10/13 08:01:18;;;;;;;10.80;3.70;;;16.30;99.90;;;;;;4232417;28;20035;-83
2023/10/13 08:03:31;;;;;;;10.23;3.25;;;16.30;99.90;;;;;;4214663;28;20094;-83
2023/10/13 08:07:52;;;;;;;6.75;3.05;;;16.30;99.90;;;;;;4232753;28;20781;-83
2023/10/13 08:09:53;;;;;;;14.35;3.17;;;16.20;99.90;;;;;;4232062;28;20043;-83
2023/10/13 08:11:54;;;;;;;9.73;3.80;;;16.30;99.90;;;;;;4232854;28;20039;-83
2023/10/13 08:14:00;;;;;;;12.05;3.17;;;16.20;99.90;;;;;;4232453;28;20039;-83
2023/10/13 08:16:07;;;;;;;10.95;3.45;;;16.20;99.90;;;;;;4214474;28;20118;-83
2023/10/13 08:18:17;;;;;;;15.55;4.43;;;16.30;99.90;;;;;;4214261;28;20048;-83
2023/10/13 08:20:18;;;;;;;9.48;3.85;;;16.30;99.90;;;;;;4232681;28;20111;-83
2023/10/13 08:31:22;;;;;;;12.52;3.83;;;16.30;99.90;;;;;;4232208;28;20055;-83
2023/10/13 08:33:27;;;;;;;10.32;3.75;;;16.30;99.90;;;;;;4196866;28;20103;-83
2023/10/13 08:35:33;;;;;;;11.70;3.08;;;16.30;99.90;;;;;;4213907;28;20099;-83
2023/10/13 08:37:59;;;;;;;7.47;2.58;;;16.40;99.90;;;;;;4214277;28;20055;-83
2023/10/13 08:42:13;;;;;;;6.95;2.70;;;16.40;99.90;;;;;;4231020;28;20561;-83
2023/10/13 08:44:31;;;;;;;11.02;3.60;;;16.40;99.90;;;;;;4197107;28;20048;-83
2023/10/13 08:47:03;;;;;;;11.50;2.80;;;16.40;99.90;;;;;;4213556;28;20036;-83
2023/10/13 08:49:15;;;;;;;11.45;3.08;;;16.40;99.90;;;;;;4231575;28;20522;-82
2023/10/13 08:51:31;;;;;;;9.68;3.45;;;16.50;99.90;;;;;;4196891;28;20113;-83
2023/10/13 08:54:19;;;;;;;10.30;3.58;;;16.60;99.90;;;;;;4231902;28;20433;-83
2023/10/13 08:56:47;;;;;;;11.77;3.38;;;16.60;99.90;;;;;;4205894;28;20203;-83
2023/10/13 08:58:25;;;;;;;7.18;3.05;;;16.60;99.90;;;;;;4220020;28;20549;-83
2023/10/13 09:00:55;;;;;;;9.40;3.20;;;16.70;99.90;;;;;;4213682;28;20543;-83
2023/10/13 09:02:59;;;;;;;10.35;3.78;;;16.70;99.90;;;;;;4231718;28;20043;-82
2023/10/13 09:05:09;;;;;;;11.25;4.50;;;16.80;99.90;;;;;;4231455;28;20119;-82
2023/10/13 09:07:15;;;;;;;7.35;3.30;;;16.80;99.90;;;;;;4213530;28;20094;-83
2023/10/13 09:09:34;;;;;;;13.15;3.85;;;16.80;99.90;;;;;;4231659;28;20044;-82
2023/10/13 09:11:48;;;;;;;;;;;16.80;99.90;;;;;;4214053;28;20059;-83
2023/10/13 09:13:51;;;;;;;8.32;3.47;;;16.90;99.90;;;;;;4213108;28;19951;-83
2023/10/13 09:16:01;;;;;;;12.65;4.20;;;17.00;99.90;;;;;;4213516;28;20049;-84
2023/10/13 09:18:15;;;;;;;10.57;3.28;;;17.00;99.90;;;;;;4213489;28;20496;-84
2023/10/13 09:20:24;;;;;;;14.80;3.95;;;17.10;99.90;;;;;;4231710;28;20051;-84
2023/10/13 09:22:27;;;;;;;9.13;4.20;;;17.10;99.90;;;;;;4213240;28;20090;-84
2023/10/13 09:24:31;;;;;;;10.15;3.88;;;17.20;99.90;;;;;;4213565;28;20055;-84
2023/10/13 09:26:36;;;;;;;14.38;4.07;;;17.30;99.90;;;;;;4213216;28;20197;-83
2023/10/13 09:28:37;;;;;;;10.32;3.85;;;17.40;99.90;;;;;;4229832;28;20046;-83
2023/10/13 09:30:52;;;;;;;7.97;3.22;;;17.50;99.90;;;;;;4230037;28;20515;-83
2023/10/13 09:33:08;;;;;;;13.07;3.13;;;17.60;99.90;;;;;;4231484;28;20100;-83
2023/10/13 09:35:13;;;;;;;8.57;3.78;;;17.60;99.90;;;;;;4231455;28;20150;-84
2023/10/13 09:37:20;;;;;;;10.50;3.75;;;17.70;99.90;;;;;;4231475;28;20036;-83
2023/10/13 09:39:36;;;;;;;10.27;4.32;;;17.80;99.90;;;;;;4213362;28;20141;-83
2023/10/13 09:41:40;;;;;;;10.70;3.97;;;17.90;99.90;;;;;;4230897;28;20391;-83
2023/10/13 09:43:43;;;;;;;13.93;3.30;;;18.00;99.90;;;;;;4231089;28;20039;-83
2023/10/13 09:46:01;;;;;;;7.82;3.40;;;18.00;99.90;;;;;;4213213;28;20123;-84
2023/10/13 09:48:06;;;;;;;9.25;2.97;;;18.20;99.90;;;;;;4231421;28;20127;-83
2023/10/13 09:50:23;;;;;;;11.40;4.00;;;18.20;99.90;;;;;;4212570;28;20520;-84
2023/10/13 09:52:27;;;;;;;12.10;3.72;;;18.20;99.90;;;;;;4214423;28;20472;-83
2023/10/13 09:54:41;;;;;;;11.13;3.72;;;18.20;99.90;;;;;;4212585;28;20040;-83
2023/10/13 09:57:03;;;;;;;10.65;3.80;;;18.30;99.90;;;;;;4212899;28;20048;-83
2023/10/13 09:59:12;;;;;;;18.60;4.90;;;18.40;99.90;;;;;;4213130;28;20599;-83
2023/10/13 10:01:30;;;;;;;9.38;3.47;;;18.40;99.90;;;;;;4212454;28;20040;-83
2023/10/13 10:05:35;;;;;;;11.40;3.38;;;18.60;99.90;;;;;;4214394;28;20048;-84
2023/10/13 10:07:39;;;;;;;8.93;3.25;;;18.60;99.90;;;;;;4212896;28;20059;-83
2023/10/13 10:09:43;;;;;;;18.05;3.95;;;18.70;99.90;;;;;;4212856;28;20044;-83
2023/10/13 10:11:56;;;;;;;8.82;3.10;;;18.90;99.90;;;;;;4196139;28;20048;-83
2023/10/13 10:14:56;;;;;;;11.25;3.72;;;18.80;99.90;;;;;;4212843;28;20520;-83
2023/10/13 10:17:08;;;;;;;14.70;3.50;;;18.70;99.90;;;;;;4129711;28;20050;-84
2023/10/13 10:19:09;;;;;;;10.70;3.95;;;18.70;99.90;;;;;;4113898;28;20058;-83
2023/10/13 10:21:14;;;;;;;9.32;3.67;;;18.70;99.90;;;;;;4133480;28;20065;-84
2023/10/13 10:23:27;;;;;;;11.23;3.30;;;18.80;99.90;;;;;;4212772;28;20105;-84
2023/10/13 10:25:34;;;;;;;6.80;3.28;;;18.80;99.90;;;;;;4212280;28;20048;-83
2023/10/13 10:27:35;;;;;;;7.63;3.10;;;18.80;99.90;;;;;;4212802;28;20091;-83
2023/10/13 10:29:36;;;;;;;11.52;3.10;;;18.80;99.90;;;;;;4214350;28;20040;-84
2023/10/13 10:31:45;;;;;;;6.25;2.70;;;18.80;99.90;;;;;;4212648;28;20048;-84
2023/10/13 10:33:52;;;;;;;9.75;3.08;;;18.80;99.90;;;;;;4212971;28;20498;-84
2023/10/13 10:36:00;;;;;;;15.48;3.08;;;18.90;99.90;;;;;;4196049;28;20102;-84
2023/10/13 10:40:46;;;;;;;13.07;3.20;;;19.10;99.90;;;;;;4214331;28;20419;-84
2023/10/13 10:42:52;;;;;;;10.77;2.75;;;19.20;99.90;;;;;;4213779;28;20040;-83
2023/10/13 10:44:57;;;;;;;8.70;3.45;;;19.30;99.90;;;;;;4214025;28;20055;-83
2023/10/13 10:47:11;;;;;;;12.85;2.85;;;19.30;99.90;;;;;;4213929;28;20087;-84
2023/10/13 10:49:12;;;;;;;11.25;2.95;;;19.40;99.90;;;;;;4214035;28;20055;-83
2023/10/13 10:51:21;;;;;;;12.93;4.05;;;19.50;99.90;;;;;;4227214;28;20043;-83
2023/10/13 10:53:33;;;;;;;10.80;3.50;;;19.60;99.90;;;;;;4230511;28;20047;-84
2023/10/13 10:55:36;;;;;;;9.77;3.17;;;19.60;99.90;;;;;;4230846;28;20052;-83
2023/10/13 10:57:43;;;;;;;12.52;3.33;;;19.50;99.90;;;;;;4230681;28;20040;-83
2023/10/13 10:59:45;;;;;;;15.43;3.50;;;19.50;99.90;;;;;;4230425;28;20051;-84
2023/10/13 11:01:46;;;;;;;12.82;2.83;;;19.60;99.90;;;;;;4230678;28;20043;-84
2023/10/13 11:03:59;;;;;;;11.90;3.10;;;19.60;99.90;;;;;;4230366;28;20119;-84
2023/10/13 11:06:03;;;;;;;14.45;3.33;;;19.60;99.90;;;;;;4232225;28;20055;-83
2023/10/13 11:08:12;;;;;;;13.13;2.85;;;19.80;99.90;;;;;;4215993;28;20435;-84
2023/10/13 11:10:31;;;;;;;6.40;2.85;;;20.00;99.90;;;;;;4233155;28;20075;-83
2023/10/13 11:12:33;;;;;;;;;;;20.20;99.90;;;;;;4234159;28;20051;-84
2023/10/13 11:14:35;;;;;;;14.60;4.43;;;20.00;99.90;;;;;;4233734;28;19943;-83
2023/10/13 11:16:39;;;;;;;15.15;3.20;;;20.30;99.90;;;;;;4233699;28;20043;-84
2023/10/13 11:18:40;;;;;;;7.88;3.13;;;20.20;99.90;;;;;;4232980;28;20050;-84
2023/10/13 11:20:44;;;;;;;12.63;3.28;;;20.20;99.90;;;;;;4233527;28;20547;-83
2023/10/13 11:22:49;;;;;;;10.85;3.05;;;20.20;99.90;;;;;;4233490;28;20118;-84
2023/10/13 11:24:50;;;;;;;11.15;3.17;;;20.10;99.90;;;;;;4215249;28;20095;-84
2023/10/13 11:26:54;;;;;;;13.50;3.03;;;;;;;;;;4232989;28;20404;-84
2023/10/13 11:28:55;;;;;;;14.95;4.72;;;20.20;99.90;;;;;;4215122;28;20054;-84
2023/10/13 11:30:59;;;;;;;13.82;3.25;;;20.00;99.90;;;;;;4215331;28;20052;-83
2023/10/13 11:33:06;;;;;;;11.98;3.40;;;;;;;;;;4233179;28;20040;-83
2023/10/13 11:35:20;;;;;;;13.73;4.13;;;20.00;99.90;;;;;;4215215;28;20131;-84
2023/10/13 11:37:37;;;;;;;12.90;3.17;;;20.60;99.90;;;;;;4233467;28;20431;-83
2023/10/13 11:39:42;;;;;;;16.38;3.60;;;19.70;99.90;;;;;;4233686;28;20419;-84
2023/10/13 11:41:50;;;;;;;14.73;3.30;;;20.20;99.90;;;;;;4233751;28;20050;-84
2023/10/13 11:43:57;;;;;;;19.15;3.40;;;19.50;99.90;;;;;;4233521;28;20047;-84
2023/10/13 11:46:12;;;;;;;11.63;2.95;;;21.30;99.90;;;;;;4233264;28;20103;-83
2023/10/13 11:48:14;;;;;;;6.18;3.30;;;20.80;99.90;;;;;;4215083;28;20059;-83
2023/10/13 11:50:31;;;;;;;13.10;3.63;;;20.20;99.90;;;;;;4233617;28;20056;-84
2023/10/13 11:52:32;;;;;;;8.45;3.33;;;20.00;99.90;;;;;;4214651;28;20054;-84
2023/10/13 11:54:34;;;;;;;14.20;3.60;;;19.80;99.90;;;;;;4215106;28;20567;-84
2023/10/13 11:56:34;;;;;;;12.88;3.72;;;20.00;99.90;;;;;;4233013;28;20035;-84
2023/10/13 11:58:40;;;;;;;24.58;3.58;;;19.60;99.90;;;;;;4232671;28;20046;-83
2023/10/13 12:00:51;;;;;;;16.98;4.60;;;19.50;99.90;;;;;;4233039;28;20047;-84
2023/10/13 12:05:12;;;;;;;14.30;4.38;;;19.40;99.90;;;;;;4232863;28;20480;-84
2023/10/13 12:07:26;;;;;;;27.95;4.55;;;19.30;99.90;;;;;;4213984;28;20044;-83
2023/10/13 12:11:30;;;;;;;12.68;3.30;;;19.20;99.90;;;;;;4232760;28;20127;-83
2023/10/13 12:13:31;;;;;;;13.27;3.78;;;19.20;99.90;;;;;;4232828;28;20047;-83
2023/10/13 12:15:48;;;;;;;17.75;3.15;;;19.30;99.90;;;;;;4232281;28;20108;-84
2023/10/13 12:17:49;;;;;;;10.88;4.07;;;19.30;99.90;;;;;;4214538;28;20081;-84
2023/10/13 12:19:52;;;;;;;17.10;3.60;;;19.40;99.90;;;;;;4231975;28;20442;-84
2023/10/13 12:21:57;;;;;;;13.95;4.38;;;19.40;99.90;;;;;;4232595;28;20092;-83
2023/10/13 12:24:01;;;;;;;15.35;3.42;;;19.50;99.90;;;;;;4200642;28;20052;-84
2023/10/13 12:26:06;;;;;;;9.23;3.28;;;19.50;99.90;;;;;;4235657;28;20466;-84
2023/10/13 12:28:18;;;;;;;12.05;3.45;;;19.60;99.90;;;;;;4197742;28;20082;-85
2023/10/13 12:30:35;;;;;;;10.65;3.63;;;19.70;99.90;;;;;;4232305;28;20039;-84
2023/10/13 12:32:35;;;;;;;14.63;3.70;;;19.60;99.90;;;;;;4197782;28;20084;-84
2023/10/13 12:37:05;;;;;;;13.75;3.42;;;19.70;99.90;;;;;;4233490;28;20598;-83
2023/10/13 12:51:19;;;;;;;10.25;4.13;;;19.50;99.90;;;;;;4232048;28;20056;-83
2023/10/13 12:53:20;;;;;;;14.23;4.80;;;19.40;99.90;;;;;;4232019;28;20071;-83
2023/10/13 12:55:24;;;;;;;15.90;3.45;;;19.30;99.90;;;;;;4214421;28;20128;-84
2023/10/13 12:57:26;;;;;;;15.38;4.43;;;19.30;99.90;;;;;;4232498;28;20122;-84
2023/10/13 12:59:27;;;;;;;15.10;4.45;;;19.30;99.90;;;;;;4198396;28;20048;-84
2023/10/13 13:01:34;;;;;;;14.93;3.92;;;19.20;99.90;;;;;;4215200;28;20048;-84
2023/10/13 13:03:35;;;;;;;17.38;3.95;;;19.20;99.90;;;;;;4233356;28;20044;-84
2023/10/13 13:05:44;;;;;;;13.20;4.93;;;19.20;99.90;;;;;;4215207;28;20087;-84
2023/10/13 13:07:52;;;;;;;15.43;4.68;;;19.20;99.90;;;;;;4199711;28;20080;-84
2023/10/13 13:09:58;;;;;;;15.10;3.63;;;19.10;99.90;;;;;;4198921;28;20150;-83
2023/10/13 13:11:59;;;;;;;11.70;4.18;;;19.00;99.90;;;;;;4215735;28;20051;-84
2023/10/13 13:13:59;;;;;;;13.65;4.47;;;19.00;99.90;;;;;;4248591;28;20191;-83
2023/10/13 13:16:03;;;;;;;10.68;4.68;;;18.90;99.90;;;;;;4234507;28;20071;-85
2023/10/13 13:18:11;;;;;;;15.77;5.55;;;18.80;99.90;;;;;;4235250;28;20039;-84
2023/10/13 13:20:25;;;;;;;13.52;4.68;;;18.70;99.90;;;;;;4218361;28;20096;-84
2023/10/13 13:22:27;;;;;;;15.25;5.20;;;18.60;99.90;;;;;;4227788;28;20075;-84
2023/10/13 13:24:29;;;;;;;12.15;4.97;;;18.60;99.90;;;;;;4214171;28;20044;-84